sensor_id;sensor_type;location;lat;lon;timestamp;P1;durP1;ratioP1;P2;durP2;ratioP2
34581;SDS011;20814;49.364;8.804;2023-02-28T00:00:21;1.98;;;1.30;;
34581;SDS011;20814;49.364;8.804;2023-02-28T00:02:47;2.97;;;1.30;;
34581;SDS011;20814;49.364;8.804;2023-02-28T00:05:14;5.15;;;1.73;;
34581;SDS011;20814;49.364;8.804;2023-02-28T00:07:39;2.40;;;1.40;;
34581;SDS011;20814;49.364;8.804;2023-02-28T00:10:05;5.22;;;1.17;;
34581;SDS011;20814;49.364;8.804;2023-02-28T00:12:34;2.00;;;1.50;;
34581;SDS011;20814;49.364;8.804;2023-02-28T00:14:59;3.33;;;1.48;;
34581;SDS011;20814;49.364;8.804;2023-02-28T00:23:28;2.80;;;1.23;;
34581;SDS011;20814;49.364;8.804;2023-02-28T00:25:54;1.98;;;1.40;;
34581;SDS011;20814;49.364;8.804;2023-02-28T00:28:19;1.40;;;1.08;;
34581;SDS011;20814;49.364;8.804;2023-02-28T00:30:45;1.67;;;1.38;;
34581;SDS011;20814;49.364;8.804;2023-02-28T00:33:10;2.50;;;1.33;;
34581;SDS011;20814;49.364;8.804;2023-02-28T00:35:35;3.88;;;1.33;;
34581;SDS011;20814;49.364;8.804;2023-02-28T00:38:00;2.30;;;1.70;;
34581;SDS011;20814;49.364;8.804;2023-02-28T00:40:26;3.15;;;1.48;;
34581;SDS011;20814;49.364;8.804;2023-02-28T00:42:51;3.70;;;1.83;;
34581;SDS011;20814;49.364;8.804;2023-02-28T00:45:16;3.03;;;1.23;;
34581;SDS011;20814;49.364;8.804;2023-02-28T00:47:42;1.77;;;1.42;;
34581;SDS011;20814;49.364;8.804;2023-02-28T00:50:07;4.90;;;1.42;;
34581;SDS011;20814;49.364;8.804;2023-02-28T00:52:33;4.30;;;1.70;;
34581;SDS011;20814;49.364;8.804;2023-02-28T00:54:58;2.10;;;1.15;;
34581;SDS011;20814;49.364;8.804;2023-02-28T00:57:23;4.68;;;1.83;;
34581;SDS011;20814;49.364;8.804;2023-02-28T00:59:49;2.65;;;1.60;;
34581;SDS011;20814;49.364;8.804;2023-02-28T01:02:14;3.50;;;1.90;;
34581;SDS011;20814;49.364;8.804;2023-02-28T01:04:39;2.63;;;1.20;;
34581;SDS011;20814;49.364;8.804;2023-02-28T01:13:11;2.05;;;1.40;;
34581;SDS011;20814;49.364;8.804;2023-02-28T01:15:36;3.05;;;1.60;;
34581;SDS011;20814;49.364;8.804;2023-02-28T01:18:01;3.78;;;1.85;;
34581;SDS011;20814;49.364;8.804;2023-02-28T01:20:26;2.88;;;1.45;;
34581;SDS011;20814;49.364;8.804;2023-02-28T01:22:52;2.28;;;1.55;;
34581;SDS011;20814;49.364;8.804;2023-02-28T01:25:17;4.47;;;1.47;;
34581;SDS011;20814;49.364;8.804;2023-02-28T01:27:42;1.77;;;1.17;;
34581;SDS011;20814;49.364;8.804;2023-02-28T01:30:08;2.93;;;1.50;;
34581;SDS011;20814;49.364;8.804;2023-02-28T01:32:33;3.40;;;1.20;;
34581;SDS011;20814;49.364;8.804;2023-02-28T01:34:58;2.95;;;1.40;;
34581;SDS011;20814;49.364;8.804;2023-02-28T01:37:24;2.83;;;1.40;;
34581;SDS011;20814;49.364;8.804;2023-02-28T01:39:49;6.57;;;1.40;;
34581;SDS011;20814;49.364;8.804;2023-02-28T01:42:14;2.13;;;1.40;;
34581;SDS011;20814;49.364;8.804;2023-02-28T01:44:59;3.78;;;1.65;;
34581;SDS011;20814;49.364;8.804;2023-02-28T01:47:29;3.25;;;1.45;;
34581;SDS011;20814;49.364;8.804;2023-02-28T01:49:55;3.80;;;1.98;;
34581;SDS011;20814;49.364;8.804;2023-02-28T01:52:21;3.40;;;1.77;;
34581;SDS011;20814;49.364;8.804;2023-02-28T01:54:48;2.80;;;1.67;;
34581;SDS011;20814;49.364;8.804;2023-02-28T01:57:16;4.28;;;2.13;;
34581;SDS011;20814;49.364;8.804;2023-02-28T01:59:43;2.72;;;1.80;;
34581;SDS011;20814;49.364;8.804;2023-02-28T02:02:11;2.50;;;1.48;;
34581;SDS011;20814;49.364;8.804;2023-02-28T02:04:40;2.20;;;1.17;;
34581;SDS011;20814;49.364;8.804;2023-02-28T02:07:06;3.13;;;1.83;;
34581;SDS011;20814;49.364;8.804;2023-02-28T02:09:32;2.65;;;1.52;;
34581;SDS011;20814;49.364;8.804;2023-02-28T02:11:57;7.53;;;1.75;;
34581;SDS011;20814;49.364;8.804;2023-02-28T02:14:35;1.85;;;1.42;;
34581;SDS011;20814;49.364;8.804;2023-02-28T02:17:07;2.08;;;1.70;;
34581;SDS011;20814;49.364;8.804;2023-02-28T02:22:29;2.22;;;1.50;;
34581;SDS011;20814;49.364;8.804;2023-02-28T02:35:27;1.70;;;1.58;;
34581;SDS011;20814;49.364;8.804;2023-02-28T02:38:09;6.90;;;1.60;;
34581;SDS011;20814;49.364;8.804;2023-02-28T02:40:38;1.98;;;1.50;;
34581;SDS011;20814;49.364;8.804;2023-02-28T02:43:08;2.60;;;1.63;;
34581;SDS011;20814;49.364;8.804;2023-02-28T02:45:46;2.40;;;1.80;;
34581;SDS011;20814;49.364;8.804;2023-02-28T02:48:13;2.03;;;1.30;;
34581;SDS011;20814;49.364;8.804;2023-02-28T02:50:45;4.75;;;1.60;;
34581;SDS011;20814;49.364;8.804;2023-02-28T02:53:11;3.45;;;1.95;;
34581;SDS011;20814;49.364;8.804;2023-02-28T02:55:42;3.63;;;1.60;;
34581;SDS011;20814;49.364;8.804;2023-02-28T02:58:09;3.80;;;1.30;;
34581;SDS011;20814;49.364;8.804;2023-02-28T03:00:37;3.58;;;1.65;;
34581;SDS011;20814;49.364;8.804;2023-02-28T03:03:03;2.00;;;1.60;;
34581;SDS011;20814;49.364;8.804;2023-02-28T03:05:34;5.05;;;1.88;;
34581;SDS011;20814;49.364;8.804;2023-02-28T03:08:02;3.30;;;2.00;;
34581;SDS011;20814;49.364;8.804;2023-02-28T03:10:29;2.90;;;1.60;;
34581;SDS011;20814;49.364;8.804;2023-02-28T03:15:45;2.83;;;1.50;;
34581;SDS011;20814;49.364;8.804;2023-02-28T03:18:21;5.60;;;2.08;;
34581;SDS011;20814;49.364;8.804;2023-02-28T03:20:54;5.00;;;1.75;;
34581;SDS011;20814;49.364;8.804;2023-02-28T03:23:23;4.28;;;2.08;;
34581;SDS011;20814;49.364;8.804;2023-02-28T03:26:03;3.25;;;1.77;;
34581;SDS011;20814;49.364;8.804;2023-02-28T03:28:36;2.38;;;1.58;;
34581;SDS011;20814;49.364;8.804;2023-02-28T03:31:07;3.58;;;1.85;;
34581;SDS011;20814;49.364;8.804;2023-02-28T03:33:36;2.22;;;1.52;;
34581;SDS011;20814;49.364;8.804;2023-02-28T03:36:04;2.80;;;1.67;;
34581;SDS011;20814;49.364;8.804;2023-02-28T03:41:16;3.20;;;2.00;;
34581;SDS011;20814;49.364;8.804;2023-02-28T03:43:45;2.45;;;1.77;;
34581;SDS011;20814;49.364;8.804;2023-02-28T03:46:12;4.75;;;2.20;;
34581;SDS011;20814;49.364;8.804;2023-02-28T03:48:44;2.58;;;1.58;;
34581;SDS011;20814;49.364;8.804;2023-02-28T03:51:11;4.30;;;2.15;;
34581;SDS011;20814;49.364;8.804;2023-02-28T03:53:42;4.32;;;2.15;;
34581;SDS011;20814;49.364;8.804;2023-02-28T03:56:18;3.97;;;2.00;;
34581;SDS011;20814;49.364;8.804;2023-02-28T03:58:49;2.97;;;2.05;;
34581;SDS011;20814;49.364;8.804;2023-02-28T04:01:24;2.70;;;1.75;;
34581;SDS011;20814;49.364;8.804;2023-02-28T04:03:50;2.70;;;1.73;;
34581;SDS011;20814;49.364;8.804;2023-02-28T04:06:17;3.90;;;1.88;;
34581;SDS011;20814;49.364;8.804;2023-02-28T04:08:42;3.70;;;2.22;;
34581;SDS011;20814;49.364;8.804;2023-02-28T04:12:08;5.45;;;2.42;;
34581;SDS011;20814;49.364;8.804;2023-02-28T04:14:02;4.82;;;2.63;;
34581;SDS011;20814;49.364;8.804;2023-02-28T04:16:28;2.95;;;1.77;;
34581;SDS011;20814;49.364;8.804;2023-02-28T04:18:53;3.28;;;2.40;;
34581;SDS011;20814;49.364;8.804;2023-02-28T04:21:19;3.15;;;1.95;;
34581;SDS011;20814;49.364;8.804;2023-02-28T04:23:47;3.50;;;2.22;;
34581;SDS011;20814;49.364;8.804;2023-02-28T04:26:12;3.63;;;2.30;;
34581;SDS011;20814;49.364;8.804;2023-02-28T04:28:37;4.30;;;2.27;;
34581;SDS011;20814;49.364;8.804;2023-02-28T04:31:03;4.63;;;2.30;;
34581;SDS011;20814;49.364;8.804;2023-02-28T04:33:30;4.80;;;2.03;;
34581;SDS011;20814;49.364;8.804;2023-02-28T04:35:59;3.83;;;2.20;;
34581;SDS011;20814;49.364;8.804;2023-02-28T04:38:24;2.50;;;1.70;;
34581;SDS011;20814;49.364;8.804;2023-02-28T04:40:50;3.25;;;2.00;;
34581;SDS011;20814;49.364;8.804;2023-02-28T04:43:15;3.60;;;1.98;;
34581;SDS011;20814;49.364;8.804;2023-02-28T04:45:40;4.27;;;2.30;;
34581;SDS011;20814;49.364;8.804;2023-02-28T04:48:05;4.07;;;2.20;;
34581;SDS011;20814;49.364;8.804;2023-02-28T04:50:30;4.68;;;1.92;;
34581;SDS011;20814;49.364;8.804;2023-02-28T04:52:56;2.80;;;1.77;;
34581;SDS011;20814;49.364;8.804;2023-02-28T04:55:21;3.45;;;2.13;;
34581;SDS011;20814;49.364;8.804;2023-02-28T04:57:46;2.85;;;1.83;;
34581;SDS011;20814;49.364;8.804;2023-02-28T05:00:11;5.10;;;2.40;;
34581;SDS011;20814;49.364;8.804;2023-02-28T05:02:37;5.07;;;2.38;;
34581;SDS011;20814;49.364;8.804;2023-02-28T05:05:04;3.85;;;2.15;;
34581;SDS011;20814;49.364;8.804;2023-02-28T05:07:29;5.43;;;2.22;;
34581;SDS011;20814;49.364;8.804;2023-02-28T05:09:54;3.67;;;2.00;;
34581;SDS011;20814;49.364;8.804;2023-02-28T05:12:20;3.10;;;2.00;;
34581;SDS011;20814;49.364;8.804;2023-02-28T05:14:45;6.85;;;2.33;;
34581;SDS011;20814;49.364;8.804;2023-02-28T05:17:10;3.47;;;2.47;;
34581;SDS011;20814;49.364;8.804;2023-02-28T05:19:35;3.00;;;1.60;;
34581;SDS011;20814;49.364;8.804;2023-02-28T05:22:00;3.70;;;2.23;;
34581;SDS011;20814;49.364;8.804;2023-02-28T05:24:25;4.00;;;1.90;;
34581;SDS011;20814;49.364;8.804;2023-02-28T05:26:51;2.90;;;1.95;;
34581;SDS011;20814;49.364;8.804;2023-02-28T05:29:17;4.55;;;2.22;;
34581;SDS011;20814;49.364;8.804;2023-02-28T05:31:42;2.63;;;1.77;;
34581;SDS011;20814;49.364;8.804;2023-02-28T05:34:08;3.97;;;1.95;;
34581;SDS011;20814;49.364;8.804;2023-02-28T05:36:36;4.35;;;2.30;;
34581;SDS011;20814;49.364;8.804;2023-02-28T05:39:01;4.18;;;1.73;;
34581;SDS011;20814;49.364;8.804;2023-02-28T05:41:28;2.88;;;1.92;;
34581;SDS011;20814;49.364;8.804;2023-02-28T05:43:53;4.40;;;2.20;;
34581;SDS011;20814;49.364;8.804;2023-02-28T05:46:18;3.40;;;1.90;;
34581;SDS011;20814;49.364;8.804;2023-02-28T05:48:45;2.77;;;2.00;;
34581;SDS011;20814;49.364;8.804;2023-02-28T05:51:11;3.72;;;2.08;;
34581;SDS011;20814;49.364;8.804;2023-02-28T05:53:36;3.92;;;2.22;;
34581;SDS011;20814;49.364;8.804;2023-02-28T05:56:01;4.28;;;2.25;;
34581;SDS011;20814;49.364;8.804;2023-02-28T05:58:27;3.55;;;1.90;;
34581;SDS011;20814;49.364;8.804;2023-02-28T06:00:55;3.30;;;1.80;;
34581;SDS011;20814;49.364;8.804;2023-02-28T06:03:20;4.18;;;2.05;;
34581;SDS011;20814;49.364;8.804;2023-02-28T06:05:45;3.63;;;2.10;;
34581;SDS011;20814;49.364;8.804;2023-02-28T06:08:11;4.03;;;1.90;;
34581;SDS011;20814;49.364;8.804;2023-02-28T06:10:36;3.58;;;2.03;;
34581;SDS011;20814;49.364;8.804;2023-02-28T06:13:02;4.65;;;2.20;;
34581;SDS011;20814;49.364;8.804;2023-02-28T06:15:27;5.00;;;2.05;;
34581;SDS011;20814;49.364;8.804;2023-02-28T06:17:52;3.33;;;2.22;;
34581;SDS011;20814;49.364;8.804;2023-02-28T06:20:18;4.70;;;2.50;;
34581;SDS011;20814;49.364;8.804;2023-02-28T06:22:43;6.43;;;2.60;;
34581;SDS011;20814;49.364;8.804;2023-02-28T06:25:08;5.70;;;2.47;;
34581;SDS011;20814;49.364;8.804;2023-02-28T06:27:34;5.30;;;2.40;;
34581;SDS011;20814;49.364;8.804;2023-02-28T06:29:59;5.00;;;2.20;;
34581;SDS011;20814;49.364;8.804;2023-02-28T06:32:24;5.88;;;2.47;;
34581;SDS011;20814;49.364;8.804;2023-02-28T06:34:50;6.35;;;2.05;;
34581;SDS011;20814;49.364;8.804;2023-02-28T06:37:15;6.90;;;2.47;;
34581;SDS011;20814;49.364;8.804;2023-02-28T06:39:40;5.07;;;2.15;;
34581;SDS011;20814;49.364;8.804;2023-02-28T06:42:05;5.13;;;2.70;;
34581;SDS011;20814;49.364;8.804;2023-02-28T06:44:31;6.25;;;2.40;;
34581;SDS011;20814;49.364;8.804;2023-02-28T06:47:00;5.30;;;2.70;;
34581;SDS011;20814;49.364;8.804;2023-02-28T06:49:25;6.10;;;2.78;;
34581;SDS011;20814;49.364;8.804;2023-02-28T06:51:50;3.70;;;2.00;;
34581;SDS011;20814;49.364;8.804;2023-02-28T06:54:15;3.80;;;2.45;;
34581;SDS011;20814;49.364;8.804;2023-02-28T06:56:40;4.95;;;2.33;;
34581;SDS011;20814;49.364;8.804;2023-02-28T06:59:06;4.68;;;2.28;;
34581;SDS011;20814;49.364;8.804;2023-02-28T07:01:31;7.73;;;2.30;;
34581;SDS011;20814;49.364;8.804;2023-02-28T07:03:59;4.57;;;2.25;;
34581;SDS011;20814;49.364;8.804;2023-02-28T07:06:25;4.90;;;2.60;;
34581;SDS011;20814;49.364;8.804;2023-02-28T07:08:51;3.33;;;2.22;;
34581;SDS011;20814;49.364;8.804;2023-02-28T07:11:17;6.63;;;2.45;;
34581;SDS011;20814;49.364;8.804;2023-02-28T07:13:43;4.88;;;2.30;;
34581;SDS011;20814;49.364;8.804;2023-02-28T07:16:09;4.20;;;2.60;;
34581;SDS011;20814;49.364;8.804;2023-02-28T07:18:35;4.63;;;2.75;;
34581;SDS011;20814;49.364;8.804;2023-02-28T07:21:04;6.28;;;2.80;;
34581;SDS011;20814;49.364;8.804;2023-02-28T07:23:29;5.32;;;2.95;;
34581;SDS011;20814;49.364;8.804;2023-02-28T07:25:55;4.22;;;2.75;;
34581;SDS011;20814;49.364;8.804;2023-02-28T07:28:20;6.47;;;2.90;;
34581;SDS011;20814;49.364;8.804;2023-02-28T07:30:45;4.40;;;2.20;;
34581;SDS011;20814;49.364;8.804;2023-02-28T07:33:10;7.87;;;2.70;;
34581;SDS011;20814;49.364;8.804;2023-02-28T07:35:35;5.85;;;3.00;;
34581;SDS011;20814;49.364;8.804;2023-02-28T07:38:01;4.03;;;2.40;;
34581;SDS011;20814;49.364;8.804;2023-02-28T07:40:26;4.70;;;2.53;;
34581;SDS011;20814;49.364;8.804;2023-02-28T07:42:51;3.95;;;2.30;;
34581;SDS011;20814;49.364;8.804;2023-02-28T07:45:17;5.10;;;3.13;;
34581;SDS011;20814;49.364;8.804;2023-02-28T07:47:43;4.43;;;2.72;;
34581;SDS011;20814;49.364;8.804;2023-02-28T07:50:09;6.22;;;2.90;;
34581;SDS011;20814;49.364;8.804;2023-02-28T07:52:34;4.90;;;2.85;;
34581;SDS011;20814;49.364;8.804;2023-02-28T07:55:00;5.00;;;2.53;;
34581;SDS011;20814;49.364;8.804;2023-02-28T07:57:25;4.47;;;2.47;;
34581;SDS011;20814;49.364;8.804;2023-02-28T07:59:51;5.60;;;2.97;;
34581;SDS011;20814;49.364;8.804;2023-02-28T08:02:17;8.20;;;3.53;;
34581;SDS011;20814;49.364;8.804;2023-02-28T08:04:42;7.82;;;2.80;;
34581;SDS011;20814;49.364;8.804;2023-02-28T08:07:07;6.25;;;3.30;;
34581;SDS011;20814;49.364;8.804;2023-02-28T08:09:33;6.25;;;2.78;;
34581;SDS011;20814;49.364;8.804;2023-02-28T08:11:58;10.18;;;3.22;;
34581;SDS011;20814;49.364;8.804;2023-02-28T08:14:24;5.57;;;3.00;;
34581;SDS011;20814;49.364;8.804;2023-02-28T08:16:49;7.00;;;3.17;;
34581;SDS011;20814;49.364;8.804;2023-02-28T08:19:14;7.17;;;3.33;;
34581;SDS011;20814;49.364;8.804;2023-02-28T08:21:39;5.83;;;3.03;;
34581;SDS011;20814;49.364;8.804;2023-02-28T08:24:05;6.75;;;3.20;;
34581;SDS011;20814;49.364;8.804;2023-02-28T08:26:30;6.22;;;2.90;;
34581;SDS011;20814;49.364;8.804;2023-02-28T08:28:55;5.67;;;3.30;;
34581;SDS011;20814;49.364;8.804;2023-02-28T08:31:20;6.27;;;3.17;;
34581;SDS011;20814;49.364;8.804;2023-02-28T08:33:45;13.30;;;3.22;;
34581;SDS011;20814;49.364;8.804;2023-02-28T08:36:12;7.18;;;3.00;;
34581;SDS011;20814;49.364;8.804;2023-02-28T08:38:37;5.15;;;2.92;;
34581;SDS011;20814;49.364;8.804;2023-02-28T08:41:04;5.85;;;2.60;;
34581;SDS011;20814;49.364;8.804;2023-02-28T08:43:31;5.82;;;3.17;;
34581;SDS011;20814;49.364;8.804;2023-02-28T08:45:56;5.75;;;2.92;;
34581;SDS011;20814;49.364;8.804;2023-02-28T08:48:22;7.05;;;2.85;;
34581;SDS011;20814;49.364;8.804;2023-02-28T08:51:03;7.28;;;2.60;;
34581;SDS011;20814;49.364;8.804;2023-02-28T08:53:29;6.97;;;3.30;;
34581;SDS011;20814;49.364;8.804;2023-02-28T08:56:05;6.43;;;2.78;;
34581;SDS011;20814;49.364;8.804;2023-02-28T08:58:31;5.22;;;3.03;;
34581;SDS011;20814;49.364;8.804;2023-02-28T09:00:56;6.47;;;3.45;;
34581;SDS011;20814;49.364;8.804;2023-02-28T09:03:21;7.07;;;2.83;;
34581;SDS011;20814;49.364;8.804;2023-02-28T09:05:57;9.18;;;3.22;;
34581;SDS011;20814;49.364;8.804;2023-02-28T09:08:23;6.65;;;3.40;;
34581;SDS011;20814;49.364;8.804;2023-02-28T09:10:48;6.45;;;3.03;;
34581;SDS011;20814;49.364;8.804;2023-02-28T09:13:13;6.65;;;3.08;;
34581;SDS011;20814;49.364;8.804;2023-02-28T09:15:39;6.75;;;3.05;;
34581;SDS011;20814;49.364;8.804;2023-02-28T09:18:04;9.18;;;3.30;;
34581;SDS011;20814;49.364;8.804;2023-02-28T09:20:29;7.25;;;2.95;;
34581;SDS011;20814;49.364;8.804;2023-02-28T09:22:54;6.65;;;3.50;;
34581;SDS011;20814;49.364;8.804;2023-02-28T09:25:19;7.00;;;3.67;;
34581;SDS011;20814;49.364;8.804;2023-02-28T09:27:45;7.53;;;3.40;;
34581;SDS011;20814;49.364;8.804;2023-02-28T09:30:10;8.15;;;3.83;;
34581;SDS011;20814;49.364;8.804;2023-02-28T09:32:36;7.30;;;3.15;;
34581;SDS011;20814;49.364;8.804;2023-02-28T09:35:01;7.10;;;3.60;;
34581;SDS011;20814;49.364;8.804;2023-02-28T09:37:26;5.40;;;3.17;;
34581;SDS011;20814;49.364;8.804;2023-02-28T09:39:55;7.85;;;3.38;;
34581;SDS011;20814;49.364;8.804;2023-02-28T09:42:21;6.30;;;3.53;;
34581;SDS011;20814;49.364;8.804;2023-02-28T09:44:47;10.57;;;3.17;;
34581;SDS011;20814;49.364;8.804;2023-02-28T09:47:27;6.85;;;3.55;;
34581;SDS011;20814;49.364;8.804;2023-02-28T09:49:55;6.22;;;3.88;;
34581;SDS011;20814;49.364;8.804;2023-02-28T09:52:24;6.05;;;3.70;;
34581;SDS011;20814;49.364;8.804;2023-02-28T09:54:51;7.55;;;3.85;;
34581;SDS011;20814;49.364;8.804;2023-02-28T09:57:33;8.10;;;3.83;;
34581;SDS011;20814;49.364;8.804;2023-02-28T10:00:19;6.85;;;3.85;;
34581;SDS011;20814;49.364;8.804;2023-02-28T10:02:49;6.40;;;3.90;;
34581;SDS011;20814;49.364;8.804;2023-02-28T10:05:22;6.55;;;3.83;;
34581;SDS011;20814;49.364;8.804;2023-02-28T10:07:58;6.55;;;3.88;;
34581;SDS011;20814;49.364;8.804;2023-02-28T10:10:32;10.35;;;3.45;;
34581;SDS011;20814;49.364;8.804;2023-02-28T10:12:59;8.68;;;4.05;;
34581;SDS011;20814;49.364;8.804;2023-02-28T10:15:26;6.07;;;3.60;;
34581;SDS011;20814;49.364;8.804;2023-02-28T10:17:55;7.38;;;3.70;;
34581;SDS011;20814;49.364;8.804;2023-02-28T10:20:22;9.77;;;3.58;;
34581;SDS011;20814;49.364;8.804;2023-02-28T10:25:32;6.25;;;3.80;;
34581;SDS011;20814;49.364;8.804;2023-02-28T10:28:07;8.43;;;3.95;;
34581;SDS011;20814;49.364;8.804;2023-02-28T10:30:34;6.55;;;4.03;;
34581;SDS011;20814;49.364;8.804;2023-02-28T10:32:59;6.88;;;3.97;;
34581;SDS011;20814;49.364;8.804;2023-02-28T10:35:25;7.47;;;4.30;;
34581;SDS011;20814;49.364;8.804;2023-02-28T10:37:55;9.43;;;4.00;;
34581;SDS011;20814;49.364;8.804;2023-02-28T11:01:20;7.38;;;4.03;;
34581;SDS011;20814;49.364;8.804;2023-02-28T11:03:46;7.60;;;4.10;;
34581;SDS011;20814;49.364;8.804;2023-02-28T11:06:15;8.63;;;4.65;;
34581;SDS011;20814;49.364;8.804;2023-02-28T11:08:45;7.30;;;4.13;;
34581;SDS011;20814;49.364;8.804;2023-02-28T11:11:11;7.47;;;4.40;;
34581;SDS011;20814;49.364;8.804;2023-02-28T11:13:37;7.88;;;4.55;;
34581;SDS011;20814;49.364;8.804;2023-02-28T11:16:05;9.73;;;4.88;;
34581;SDS011;20814;49.364;8.804;2023-02-28T11:18:36;8.68;;;4.70;;
34581;SDS011;20814;49.364;8.804;2023-02-28T11:21:04;6.70;;;4.05;;
34581;SDS011;20814;49.364;8.804;2023-02-28T11:23:30;9.82;;;4.65;;
34581;SDS011;20814;49.364;8.804;2023-02-28T11:25:58;7.75;;;4.50;;
34581;SDS011;20814;49.364;8.804;2023-02-28T11:28:28;10.63;;;4.70;;
34581;SDS011;20814;49.364;8.804;2023-02-28T11:31:14;8.07;;;4.25;;
34581;SDS011;20814;49.364;8.804;2023-02-28T11:33:41;7.93;;;4.18;;
34581;SDS011;20814;49.364;8.804;2023-02-28T11:36:21;7.30;;;4.32;;
34581;SDS011;20814;49.364;8.804;2023-02-28T11:38:49;9.15;;;4.53;;
34581;SDS011;20814;49.364;8.804;2023-02-28T11:44:19;8.30;;;4.20;;
34581;SDS011;20814;49.364;8.804;2023-02-28T11:46:56;10.07;;;4.82;;
34581;SDS011;20814;49.364;8.804;2023-02-28T11:49:37;9.27;;;4.57;;
34581;SDS011;20814;49.364;8.804;2023-02-28T12:02:35;7.70;;;4.50;;
34581;SDS011;20814;49.364;8.804;2023-02-28T12:05:44;11.65;;;4.63;;
34581;SDS011;20814;49.364;8.804;2023-02-28T12:10:42;8.15;;;5.15;;
34581;SDS011;20814;49.364;8.804;2023-02-28T12:21:26;11.60;;;5.25;;
34581;SDS011;20814;49.364;8.804;2023-02-28T12:23:56;9.95;;;4.70;;
34581;SDS011;20814;49.364;8.804;2023-02-28T12:26:41;9.02;;;4.70;;
34581;SDS011;20814;49.364;8.804;2023-02-28T12:29:21;7.05;;;4.30;;
34581;SDS011;20814;49.364;8.804;2023-02-28T12:31:49;10.13;;;4.68;;
34581;SDS011;20814;49.364;8.804;2023-02-28T12:34:20;6.57;;;4.50;;
34581;SDS011;20814;49.364;8.804;2023-02-28T12:36:46;8.20;;;4.80;;
34581;SDS011;20814;49.364;8.804;2023-02-28T12:39:20;8.70;;;4.43;;
34581;SDS011;20814;49.364;8.804;2023-02-28T12:41:47;8.95;;;4.28;;
34581;SDS011;20814;49.364;8.804;2023-02-28T12:44:15;10.20;;;5.30;;
34581;SDS011;20814;49.364;8.804;2023-02-28T12:46:43;7.97;;;4.68;;
34581;SDS011;20814;49.364;8.804;2023-02-28T12:49:10;7.15;;;4.32;;
34581;SDS011;20814;49.364;8.804;2023-02-28T12:51:38;10.85;;;5.32;;
34581;SDS011;20814;49.364;8.804;2023-02-28T13:07:08;8.15;;;4.55;;
34581;SDS011;20814;49.364;8.804;2023-02-28T13:09:38;10.23;;;5.47;;
34581;SDS011;20814;49.364;8.804;2023-02-28T13:12:12;11.43;;;5.22;;
34581;SDS011;20814;49.364;8.804;2023-02-28T13:14:37;8.18;;;4.82;;
34581;SDS011;20814;49.364;8.804;2023-02-28T13:17:09;10.30;;;4.75;;
34581;SDS011;20814;49.364;8.804;2023-02-28T13:19:41;9.00;;;4.45;;
34581;SDS011;20814;49.364;8.804;2023-02-28T13:22:20;12.38;;;5.32;;
34581;SDS011;20814;49.364;8.804;2023-02-28T13:25:02;9.55;;;5.47;;
34581;SDS011;20814;49.364;8.804;2023-02-28T13:27:48;7.90;;;4.63;;
34581;SDS011;20814;49.364;8.804;2023-02-28T13:35:48;11.85;;;5.15;;
34581;SDS011;20814;49.364;8.804;2023-02-28T13:38:21;9.68;;;5.22;;
34581;SDS011;20814;49.364;8.804;2023-02-28T13:40:47;10.50;;;5.30;;
34581;SDS011;20814;49.364;8.804;2023-02-28T13:43:12;11.43;;;5.55;;
34581;SDS011;20814;49.364;8.804;2023-02-28T13:45:44;10.90;;;5.30;;
34581;SDS011;20814;49.364;8.804;2023-02-28T13:48:27;9.63;;;4.88;;
34581;SDS011;20814;49.364;8.804;2023-02-28T13:50:52;7.05;;;4.32;;
34581;SDS011;20814;49.364;8.804;2023-02-28T13:53:28;11.70;;;5.15;;
34581;SDS011;20814;49.364;8.804;2023-02-28T13:56:01;8.13;;;4.97;;
34581;SDS011;20814;49.364;8.804;2023-02-28T14:01:12;9.27;;;5.03;;
34581;SDS011;20814;49.364;8.804;2023-02-28T14:06:25;9.52;;;5.15;;
34581;SDS011;20814;49.364;8.804;2023-02-28T14:09:01;8.70;;;4.97;;
34581;SDS011;20814;49.364;8.804;2023-02-28T14:11:30;9.90;;;4.35;;
34581;SDS011;20814;49.364;8.804;2023-02-28T14:13:56;11.68;;;5.35;;
34581;SDS011;20814;49.364;8.804;2023-02-28T14:16:23;8.50;;;4.95;;
34581;SDS011;20814;49.364;8.804;2023-02-28T14:19:31;10.00;;;4.70;;
34581;SDS011;20814;49.364;8.804;2023-02-28T14:21:38;6.93;;;4.50;;
34581;SDS011;20814;49.364;8.804;2023-02-28T14:26:49;9.90;;;4.97;;
34581;SDS011;20814;49.364;8.804;2023-02-28T14:29:30;7.43;;;4.78;;
34581;SDS011;20814;49.364;8.804;2023-02-28T14:32:02;9.20;;;4.35;;
34581;SDS011;20814;49.364;8.804;2023-02-28T14:34:39;8.95;;;5.20;;
34581;SDS011;20814;49.364;8.804;2023-02-28T14:37:13;10.13;;;5.20;;
34581;SDS011;20814;49.364;8.804;2023-02-28T14:39:41;9.93;;;5.10;;
34581;SDS011;20814;49.364;8.804;2023-02-28T14:42:24;10.73;;;4.80;;
34581;SDS011;20814;49.364;8.804;2023-02-28T14:44:53;7.10;;;4.18;;
34581;SDS011;20814;49.364;8.804;2023-02-28T14:47:27;7.38;;;4.72;;
34581;SDS011;20814;49.364;8.804;2023-02-28T14:49:52;9.52;;;4.43;;
34581;SDS011;20814;49.364;8.804;2023-02-28T14:52:21;9.75;;;5.10;;
34581;SDS011;20814;49.364;8.804;2023-02-28T14:55:23;9.65;;;5.30;;
34581;SDS011;20814;49.364;8.804;2023-02-28T14:57:40;10.27;;;4.68;;
34581;SDS011;20814;49.364;8.804;2023-02-28T15:02:40;9.88;;;4.75;;
34581;SDS011;20814;49.364;8.804;2023-02-28T15:05:28;7.65;;;4.47;;
34581;SDS011;20814;49.364;8.804;2023-02-28T15:08:03;7.68;;;4.60;;
34581;SDS011;20814;49.364;8.804;2023-02-28T15:10:28;10.90;;;5.25;;
34581;SDS011;20814;49.364;8.804;2023-02-28T15:13:00;8.55;;;4.93;;
34581;SDS011;20814;49.364;8.804;2023-02-28T15:15:27;10.77;;;5.15;;
34581;SDS011;20814;49.364;8.804;2023-02-28T15:17:56;7.65;;;4.68;;
34581;SDS011;20814;49.364;8.804;2023-02-28T15:20:21;9.43;;;5.05;;
34581;SDS011;20814;49.364;8.804;2023-02-28T15:22:48;11.63;;;5.22;;
34581;SDS011;20814;49.364;8.804;2023-02-28T15:25:18;9.30;;;5.03;;
34581;SDS011;20814;49.364;8.804;2023-02-28T15:27:45;9.00;;;4.68;;
34581;SDS011;20814;49.364;8.804;2023-02-28T15:30:16;9.68;;;5.30;;
34581;SDS011;20814;49.364;8.804;2023-02-28T15:32:42;8.63;;;4.65;;
34581;SDS011;20814;49.364;8.804;2023-02-28T15:37:53;8.63;;;4.82;;
34581;SDS011;20814;49.364;8.804;2023-02-28T15:40:33;8.77;;;4.50;;
34581;SDS011;20814;49.364;8.804;2023-02-28T15:43:14;9.05;;;4.85;;
34581;SDS011;20814;49.364;8.804;2023-02-28T15:45:55;10.23;;;4.68;;
34581;SDS011;20814;49.364;8.804;2023-02-28T15:48:31;9.27;;;4.95;;
34581;SDS011;20814;49.364;8.804;2023-02-28T15:51:07;11.75;;;5.55;;
34581;SDS011;20814;49.364;8.804;2023-02-28T15:53:35;8.60;;;4.35;;
34581;SDS011;20814;49.364;8.804;2023-02-28T15:56:01;12.70;;;5.63;;
34581;SDS011;20814;49.364;8.804;2023-02-28T15:58:28;8.60;;;4.72;;
34581;SDS011;20814;49.364;8.804;2023-02-28T16:01:27;10.13;;;4.55;;
34581;SDS011;20814;49.364;8.804;2023-02-28T16:03:48;10.45;;;5.20;;
34581;SDS011;20814;49.364;8.804;2023-02-28T16:06:34;11.23;;;4.78;;
34581;SDS011;20814;49.364;8.804;2023-02-28T16:08:59;12.35;;;4.60;;
34581;SDS011;20814;49.364;8.804;2023-02-28T16:11:24;14.02;;;5.00;;
34581;SDS011;20814;49.364;8.804;2023-02-28T16:13:50;9.93;;;4.78;;
34581;SDS011;20814;49.364;8.804;2023-02-28T16:16:17;10.38;;;5.22;;
34581;SDS011;20814;49.364;8.804;2023-02-28T16:18:42;9.05;;;4.70;;
34581;SDS011;20814;49.364;8.804;2023-02-28T16:21:08;10.30;;;4.80;;
34581;SDS011;20814;49.364;8.804;2023-02-28T16:23:33;7.95;;;4.43;;
34581;SDS011;20814;49.364;8.804;2023-02-28T16:25:58;9.85;;;4.82;;
34581;SDS011;20814;49.364;8.804;2023-02-28T16:28:25;13.37;;;5.40;;
34581;SDS011;20814;49.364;8.804;2023-02-28T16:30:56;12.13;;;5.57;;
34581;SDS011;20814;49.364;8.804;2023-02-28T16:33:21;10.60;;;4.90;;
34581;SDS011;20814;49.364;8.804;2023-02-28T16:35:46;9.60;;;4.83;;
34581;SDS011;20814;49.364;8.804;2023-02-28T16:38:11;8.10;;;4.70;;
34581;SDS011;20814;49.364;8.804;2023-02-28T16:40:36;9.90;;;4.67;;
34581;SDS011;20814;49.364;8.804;2023-02-28T16:43:04;9.75;;;5.00;;